sensor_id;sensor_type;location;lat;lon;timestamp;pressure;altitude;pressure_sealevel;temperature;humidity
83027;BME280;72842;56.038;12.706;2024-03-06T00:02:06;102351.72;;;10.77;52.67
83027;BME280;72842;56.038;12.706;2024-03-06T00:04:32;102364.25;;;10.77;52.72
83027;BME280;72842;56.038;12.706;2024-03-06T00:06:58;102355.34;;;10.76;52.55
83027;BME280;72842;56.038;12.706;2024-03-06T00:09:25;102353.63;;;10.75;52.70
83027;BME280;72842;56.038;12.706;2024-03-06T00:11:52;102351.88;;;10.74;52.81
83027;BME280;72842;56.038;12.706;2024-03-06T00:14:19;102362.56;;;10.74;52.86
83027;BME280;72842;56.038;12.706;2024-03-06T00:16:45;102357.31;;;10.73;52.65
83027;BME280;72842;56.038;12.706;2024-03-06T00:19:11;102344.97;;;10.70;52.79
83027;BME280;72842;56.038;12.706;2024-03-06T00:21:36;102358.25;;;10.72;53.25
83027;BME280;72842;56.038;12.706;2024-03-06T00:24:02;102354.81;;;10.70;53.31
83027;BME280;72842;56.038;12.706;2024-03-06T00:26:29;102358.44;;;10.69;52.94
83027;BME280;72842;56.038;12.706;2024-03-06T00:28:54;102368.25;;;10.68;52.79
83027;BME280;72842;56.038;12.706;2024-03-06T00:31:20;102368.25;;;10.68;52.51
83027;BME280;72842;56.038;12.706;2024-03-06T00:33:45;102368.34;;;10.67;52.67
83027;BME280;72842;56.038;12.706;2024-03-06T00:36:10;102376.38;;;10.67;53.38
83027;BME280;72842;56.038;12.706;2024-03-06T00:38:36;102367.69;;;10.62;53.21
83027;BME280;72842;56.038;12.706;2024-03-06T00:41:02;102375.50;;;10.66;53.05
83027;BME280;72842;56.038;12.706;2024-03-06T00:43:27;102377.41;;;10.64;53.41
83027;BME280;72842;56.038;12.706;2024-03-06T00:45:53;102373.88;;;10.64;52.51
83027;BME280;72842;56.038;12.706;2024-03-06T00:48:18;102363.22;;;10.62;53.26
83027;BME280;72842;56.038;12.706;2024-03-06T00:50:45;102381.09;;;10.62;52.50
83027;BME280;72842;56.038;12.706;2024-03-06T00:53:11;102376.69;;;10.61;53.17
83027;BME280;72842;56.038;12.706;2024-03-06T00:55:36;102375.03;;;10.58;53.01
83027;BME280;72842;56.038;12.706;2024-03-06T00:58:02;102380.41;;;10.58;53.24
83027;BME280;72842;56.038;12.706;2024-03-06T01:00:27;102375.13;;;10.57;52.84
83027;BME280;72842;56.038;12.706;2024-03-06T01:02:54;102370.09;;;10.50;52.87
83027;BME280;72842;56.038;12.706;2024-03-06T01:05:19;102381.50;;;10.54;53.27
83027;BME280;72842;56.038;12.706;2024-03-06T01:07:44;102377.09;;;10.53;52.88
83027;BME280;72842;56.038;12.706;2024-03-06T01:10:10;102379.00;;;10.51;52.97
83027;BME280;72842;56.038;12.706;2024-03-06T01:12:36;102381.66;;;10.51;53.24
83027;BME280;72842;56.038;12.706;2024-03-06T01:15:01;102373.63;;;10.51;52.82
83027;BME280;72842;56.038;12.706;2024-03-06T01:17:27;102380.81;;;10.50;52.54
83027;BME280;72842;56.038;12.706;2024-03-06T01:19:52;102371.00;;;10.49;53.67
83027;BME280;72842;56.038;12.706;2024-03-06T01:22:18;102371.97;;;10.48;53.22
83027;BME280;72842;56.038;12.706;2024-03-06T01:24:44;102379.13;;;10.48;52.56
83027;BME280;72842;56.038;12.706;2024-03-06T01:27:10;102367.47;;;10.49;52.76
83027;BME280;72842;56.038;12.706;2024-03-06T01:29:35;102374.72;;;10.47;53.59
83027;BME280;72842;56.038;12.706;2024-03-06T01:32:01;102377.50;;;10.45;52.83
83027;BME280;72842;56.038;12.706;2024-03-06T01:34:26;102383.69;;;10.46;53.44
83027;BME280;72842;56.038;12.706;2024-03-06T01:36:52;102379.31;;;10.45;53.69
83027;BME280;72842;56.038;12.706;2024-03-06T01:39:18;102380.25;;;10.44;52.63
83027;BME280;72842;56.038;12.706;2024-03-06T01:41:45;102382.94;;;10.44;53.32
83027;BME280;72842;56.038;12.706;2024-03-06T01:44:11;102373.53;;;10.35;53.41
83027;BME280;72842;56.038;12.706;2024-03-06T01:46:36;102384.78;;;10.42;53.19
83027;BME280;72842;56.038;12.706;2024-03-06T01:49:02;102388.41;;;10.41;53.18
83027;BME280;72842;56.038;12.706;2024-03-06T01:51:27;102400.06;;;10.40;53.30
83027;BME280;72842;56.038;12.706;2024-03-06T01:53:53;102400.94;;;10.40;53.57
83027;BME280;72842;56.038;12.706;2024-03-06T01:56:19;102407.25;;;10.39;53.30
83027;BME280;72842;56.038;12.706;2024-03-06T01:58:45;102399.22;;;10.39;53.77
83027;BME280;72842;56.038;12.706;2024-03-06T02:01:12;102414.41;;;10.39;52.76
83027;BME280;72842;56.038;12.706;2024-03-06T02:03:37;102417.16;;;10.37;53.67
83027;BME280;72842;56.038;12.706;2024-03-06T02:06:04;102423.44;;;10.36;53.50
83027;BME280;72842;56.038;12.706;2024-03-06T02:08:30;102425.25;;;10.36;53.25
83027;BME280;72842;56.038;12.706;2024-03-06T02:10:56;102428.00;;;10.34;53.35
83027;BME280;72842;56.038;12.706;2024-03-06T02:13:21;102429.81;;;10.34;53.04
83027;BME280;72842;56.038;12.706;2024-03-06T02:15:47;102426.34;;;10.32;52.96
83027;BME280;72842;56.038;12.706;2024-03-06T02:18:13;102419.25;;;10.31;53.37
83027;BME280;72842;56.038;12.706;2024-03-06T02:20:39;102424.69;;;10.29;53.62
83027;BME280;72842;56.038;12.706;2024-03-06T02:23:07;102423.03;;;10.26;53.23
83027;BME280;72842;56.038;12.706;2024-03-06T02:25:32;102418.56;;;10.27;53.32
83027;BME280;72842;56.038;12.706;2024-03-06T02:27:58;102415.00;;;10.26;53.57
83027;BME280;72842;56.038;12.706;2024-03-06T02:30:24;102413.47;;;10.21;53.13
83027;BME280;72842;56.038;12.706;2024-03-06T02:32:50;102416.00;;;10.24;53.52
83027;BME280;72842;56.038;12.706;2024-03-06T02:35:15;102420.50;;;10.23;53.91
83027;BME280;72842;56.038;12.706;2024-03-06T02:37:44;102427.72;;;10.21;53.69
83027;BME280;72842;56.038;12.706;2024-03-06T02:40:10;102436.69;;;10.20;53.38
83027;BME280;72842;56.038;12.706;2024-03-06T02:42:36;102429.59;;;10.19;53.42
83027;BME280;72842;56.038;12.706;2024-03-06T02:45:05;102430.56;;;10.18;53.28
83027;BME280;72842;56.038;12.706;2024-03-06T02:47:31;102435.09;;;10.16;53.75
83027;BME280;72842;56.038;12.706;2024-03-06T02:49:56;102428.00;;;10.15;53.78
83027;BME280;72842;56.038;12.706;2024-03-06T02:52:21;102430.91;;;10.11;53.55
83027;BME280;72842;56.038;12.706;2024-03-06T02:54:47;102445.00;;;10.14;53.29
83027;BME280;72842;56.038;12.706;2024-03-06T02:57:13;102443.56;;;10.07;53.92
83027;BME280;72842;56.038;12.706;2024-03-06T02:59:42;102439.78;;;10.11;53.72
83027;BME280;72842;56.038;12.706;2024-03-06T03:02:07;102446.09;;;10.10;53.64
83027;BME280;72842;56.038;12.706;2024-03-06T03:04:33;102441.56;;;10.12;53.74
83027;BME280;72842;56.038;12.706;2024-03-06T03:06:58;102431.75;;;10.11;53.88
83027;BME280;72842;56.038;12.706;2024-03-06T03:09:24;102434.44;;;10.11;53.33
83027;BME280;72842;56.038;12.706;2024-03-06T03:11:49;102447.81;;;10.11;53.21
83027;BME280;72842;56.038;12.706;2024-03-06T03:14:15;102434.44;;;10.11;53.50
83027;BME280;72842;56.038;12.706;2024-03-06T03:16:40;102435.38;;;10.10;53.34
83027;BME280;72842;56.038;12.706;2024-03-06T03:19:07;102435.31;;;10.12;53.52
83027;BME280;72842;56.038;12.706;2024-03-06T03:21:34;102449.56;;;10.12;53.33
83027;BME280;72842;56.038;12.706;2024-03-06T03:23:59;102439.78;;;10.11;53.63
83027;BME280;72842;56.038;12.706;2024-03-06T03:26:25;102453.16;;;10.11;53.81
83027;BME280;72842;56.038;12.706;2024-03-06T03:28:50;102443.50;;;10.09;53.41
83027;BME280;72842;56.038;12.706;2024-03-06T03:31:16;102446.16;;;10.09;53.40
83027;BME280;72842;56.038;12.706;2024-03-06T03:33:41;102454.19;;;10.09;53.63
83027;BME280;72842;56.038;12.706;2024-03-06T03:36:08;102449.78;;;10.08;53.95
83027;BME280;72842;56.038;12.706;2024-03-06T03:38:34;102448.84;;;10.09;53.65
83027;BME280;72842;56.038;12.706;2024-03-06T03:41:06;102461.34;;;10.08;53.63
83027;BME280;72842;56.038;12.706;2024-03-06T03:43:32;102458.69;;;10.08;54.08
83027;BME280;72842;56.038;12.706;2024-03-06T03:45:58;102456.13;;;10.05;53.98
83027;BME280;72842;56.038;12.706;2024-03-06T03:48:24;102465.91;;;10.06;54.07
83027;BME280;72842;56.038;12.706;2024-03-06T03:50:50;102454.34;;;10.06;53.63
83027;BME280;72842;56.038;12.706;2024-03-06T03:53:15;102456.22;;;10.04;54.01
83027;BME280;72842;56.038;12.706;2024-03-06T03:55:41;102460.69;;;10.03;54.14
83027;BME280;72842;56.038;12.706;2024-03-06T03:58:06;102464.41;;;10.00;53.59
83027;BME280;72842;56.038;12.706;2024-03-06T04:00:33;102463.59;;;9.98;54.03
83027;BME280;72842;56.038;12.706;2024-03-06T04:02:58;102466.22;;;10.00;53.81
83027;BME280;72842;56.038;12.706;2024-03-06T04:05:23;102468.06;;;9.98;53.64
83027;BME280;72842;56.038;12.706;2024-03-06T04:07:49;102461.84;;;9.97;53.99
83027;BME280;72842;56.038;12.706;2024-03-06T04:10:14;102474.38;;;9.97;53.81
83027;BME280;72842;56.038;12.706;2024-03-06T04:12:40;102477.03;;;9.97;53.83
83027;BME280;72842;56.038;12.706;2024-03-06T04:15:06;102476.16;;;9.96;54.25
83027;BME280;72842;56.038;12.706;2024-03-06T04:17:31;102478.06;;;9.94;53.69
83027;BME280;72842;56.038;12.706;2024-03-06T04:19:57;102480.75;;;9.94;53.64
83027;BME280;72842;56.038;12.706;2024-03-06T04:22:22;102495.91;;;9.94;53.90
83027;BME280;72842;56.038;12.706;2024-03-06T04:24:47;102486.22;;;9.91;54.34
83027;BME280;72842;56.038;12.706;2024-03-06T04:27:13;102486.22;;;9.91;54.08
83027;BME280;72842;56.038;12.706;2024-03-06T04:29:38;102488.09;;;9.89;54.29
83027;BME280;72842;56.038;12.706;2024-03-06T04:32:04;102488.09;;;9.89;54.25
83027;BME280;72842;56.038;12.706;2024-03-06T04:34:30;102489.91;;;9.89;54.11
83027;BME280;72842;56.038;12.706;2024-03-06T04:36:55;102497.94;;;9.89;54.30
83027;BME280;72842;56.038;12.706;2024-03-06T04:39:21;102493.53;;;9.88;54.22
83027;BME280;72842;56.038;12.706;2024-03-06T04:41:47;102493.53;;;9.88;54.25
83027;BME280;72842;56.038;12.706;2024-03-06T04:44:12;102495.25;;;9.89;54.37
83027;BME280;72842;56.038;12.706;2024-03-06T04:46:38;102500.59;;;9.89;53.99
83027;BME280;72842;56.038;12.706;2024-03-06T04:49:03;102490.19;;;9.83;54.29
83027;BME280;72842;56.038;12.706;2024-03-06T04:51:28;102503.38;;;9.87;54.11
83027;BME280;72842;56.038;12.706;2024-03-06T04:53:54;102494.53;;;9.85;54.08
83027;BME280;72842;56.038;12.706;2024-03-06T04:56:19;102510.53;;;9.87;54.22
83027;BME280;72842;56.038;12.706;2024-03-06T04:58:46;102508.75;;;9.86;54.40
83027;BME280;72842;56.038;12.706;2024-03-06T05:01:12;102507.03;;;9.85;53.97
83027;BME280;72842;56.038;12.706;2024-03-06T05:03:38;102508.84;;;9.84;54.16
83027;BME280;72842;56.038;12.706;2024-03-06T05:06:05;102511.59;;;9.83;54.10
83027;BME280;72842;56.038;12.706;2024-03-06T05:08:31;102513.41;;;9.82;54.09
83027;BME280;72842;56.038;12.706;2024-03-06T05:10:56;102515.19;;;9.82;54.45
83027;BME280;72842;56.038;12.706;2024-03-06T05:13:22;102522.38;;;9.81;53.97
83027;BME280;72842;56.038;12.706;2024-03-06T05:15:48;102519.72;;;9.80;54.17
83027;BME280;72842;56.038;12.706;2024-03-06T05:18:14;102522.41;;;9.80;54.10
83027;BME280;72842;56.038;12.706;2024-03-06T05:20:39;102527.75;;;9.80;54.57
83027;BME280;72842;56.038;12.706;2024-03-06T05:23:04;102529.63;;;9.78;54.56
83027;BME280;72842;56.038;12.706;2024-03-06T05:25:30;102525.16;;;9.78;54.08
83027;BME280;72842;56.038;12.706;2024-03-06T05:27:55;102532.31;;;9.78;54.34
83027;BME280;72842;56.038;12.706;2024-03-06T05:30:21;102528.78;;;9.77;54.47
83027;BME280;72842;56.038;12.706;2024-03-06T05:32:46;102528.84;;;9.76;54.13
83027;BME280;72842;56.038;12.706;2024-03-06T05:35:12;102541.28;;;9.77;54.32
83027;BME280;72842;56.038;12.706;2024-03-06T05:37:38;102538.69;;;9.75;54.08
83027;BME280;72842;56.038;12.706;2024-03-06T05:40:04;102547.56;;;9.76;54.48
83027;BME280;72842;56.038;12.706;2024-03-06T05:42:30;102539.53;;;9.76;54.41
83027;BME280;72842;56.038;12.706;2024-03-06T05:44:57;102537.81;;;9.75;54.29
83027;BME280;72842;56.038;12.706;2024-03-06T05:47:26;102540.50;;;9.75;54.37
83027;BME280;72842;56.038;12.706;2024-03-06T05:49:51;102539.59;;;9.74;54.35
83027;BME280;72842;56.038;12.706;2024-03-06T05:52:17;102541.34;;;9.75;54.32
83027;BME280;72842;56.038;12.706;2024-03-06T05:54:43;102544.06;;;9.73;54.26
83027;BME280;72842;56.038;12.706;2024-03-06T05:57:08;102550.28;;;9.74;54.30
83027;BME280;72842;56.038;12.706;2024-03-06T05:59:34;102555.63;;;9.74;54.21
83027;BME280;72842;56.038;12.706;2024-03-06T06:01:59;102560.19;;;9.72;54.49
83027;BME280;72842;56.038;12.706;2024-03-06T06:04:25;102554.91;;;9.70;54.43
83027;BME280;72842;56.038;12.706;2024-03-06T06:06:51;102561.94;;;9.73;54.25
83027;BME280;72842;56.038;12.706;2024-03-06T06:09:17;102555.72;;;9.72;54.56
83027;BME280;72842;56.038;12.706;2024-03-06T06:11:44;102561.22;;;9.69;54.65
83027;BME280;72842;56.038;12.706;2024-03-06T06:14:09;102566.47;;;9.71;54.48
83027;BME280;72842;56.038;12.706;2024-03-06T06:16:38;102568.28;;;9.70;54.33
83027;BME280;72842;56.038;12.706;2024-03-06T06:19:06;102553.38;;;9.65;54.44
83027;BME280;72842;56.038;12.706;2024-03-06T06:21:32;102576.31;;;9.70;54.32
83027;BME280;72842;56.038;12.706;2024-03-06T06:23:57;102573.56;;;9.72;54.63
83027;BME280;72842;56.038;12.706;2024-03-06T06:26:23;102570.97;;;9.70;54.42
83027;BME280;72842;56.038;12.706;2024-03-06T06:28:48;102570.03;;;9.71;54.76
83027;BME280;72842;56.038;12.706;2024-03-06T06:31:14;102574.50;;;9.71;54.60
83027;BME280;72842;56.038;12.706;2024-03-06T06:33:39;102578.97;;;9.70;54.80
83027;BME280;72842;56.038;12.706;2024-03-06T06:36:05;102584.41;;;9.69;54.49
83027;BME280;72842;56.038;12.706;2024-03-06T06:38:30;102586.06;;;9.71;54.62
83027;BME280;72842;56.038;12.706;2024-03-06T06:40:56;102576.56;;;9.64;54.74
83027;BME280;72842;56.038;12.706;2024-03-06T06:43:21;102587.00;;;9.70;54.67
83027;BME280;72842;56.038;12.706;2024-03-06T06:45:47;102594.22;;;9.68;54.46
83027;BME280;72842;56.038;12.706;2024-03-06T06:48:12;102609.34;;;9.69;54.52
83027;BME280;72842;56.038;12.706;2024-03-06T06:50:38;102607.59;;;9.68;54.95
83027;BME280;72842;56.038;12.706;2024-03-06T06:53:03;102609.44;;;9.66;54.83
83027;BME280;72842;56.038;12.706;2024-03-06T06:55:30;102597.03;;;9.65;54.62
83027;BME280;72842;56.038;12.706;2024-03-06T06:57:55;102597.28;;;9.59;54.30
83027;BME280;72842;56.038;12.706;2024-03-06T07:00:24;102619.34;;;9.64;54.69
83027;BME280;72842;56.038;12.706;2024-03-06T07:02:50;102620.22;;;9.65;54.73
83027;BME280;72842;56.038;12.706;2024-03-06T07:05:16;102622.03;;;9.64;54.68
83027;BME280;72842;56.038;12.706;2024-03-06T07:07:41;102621.16;;;9.64;54.85
83027;BME280;72842;56.038;12.706;2024-03-06T07:10:07;102618.47;;;9.64;54.82
83027;BME280;72842;56.038;12.706;2024-03-06T07:12:34;102629.19;;;9.64;54.79
83027;BME280;72842;56.038;12.706;2024-03-06T07:14:59;102642.63;;;9.62;54.70
83027;BME280;72842;56.038;12.706;2024-03-06T07:17:25;102638.19;;;9.61;55.05
83027;BME280;72842;56.038;12.706;2024-03-06T07:19:50;102638.50;;;9.54;54.48
83027;BME280;72842;56.038;12.706;2024-03-06T07:22:18;102648.94;;;9.60;54.90
83027;BME280;72842;56.038;12.706;2024-03-06T07:24:43;102647.22;;;9.59;54.85
83027;BME280;72842;56.038;12.706;2024-03-06T07:27:09;102651.69;;;9.58;54.83
83027;BME280;72842;56.038;12.706;2024-03-06T07:29:35;102651.69;;;9.58;54.96
83027;BME280;72842;56.038;12.706;2024-03-06T07:32:00;102650.81;;;9.58;54.84
83027;BME280;72842;56.038;12.706;2024-03-06T07:34:26;102652.63;;;9.57;54.98
83027;BME280;72842;56.038;12.706;2024-03-06T07:36:52;102661.50;;;9.58;55.05
83027;BME280;72842;56.038;12.706;2024-03-06T07:39:21;102661.50;;;9.58;54.94
83027;BME280;72842;56.038;12.706;2024-03-06T07:41:46;102671.34;;;9.57;55.23
83027;BME280;72842;56.038;12.706;2024-03-06T07:44:12;102664.25;;;9.56;54.86
83027;BME280;72842;56.038;12.706;2024-03-06T07:46:38;102665.16;;;9.55;54.94
83027;BME280;72842;56.038;12.706;2024-03-06T07:49:03;102665.25;;;9.54;55.24
83027;BME280;72842;56.038;12.706;2024-03-06T07:51:33;102674.13;;;9.54;55.60
83027;BME280;72842;56.038;12.706;2024-03-06T07:53:59;102679.63;;;9.51;54.96
83027;BME280;72842;56.038;12.706;2024-03-06T07:56:27;102672.53;;;9.50;55.38
83027;BME280;72842;56.038;12.706;2024-03-06T07:58:53;102673.34;;;9.52;55.19
83027;BME280;72842;56.038;12.706;2024-03-06T08:01:19;102686.69;;;9.52;55.45
83027;BME280;72842;56.038;12.706;2024-03-06T08:03:46;102678.06;;;9.45;55.14
83027;BME280;72842;56.038;12.706;2024-03-06T08:06:11;102696.53;;;9.52;55.30
83027;BME280;72842;56.038;12.706;2024-03-06T08:08:40;102688.56;;;9.50;55.14
83027;BME280;72842;56.038;12.706;2024-03-06T08:11:06;102690.31;;;9.51;55.36
83027;BME280;72842;56.038;12.706;2024-03-06T08:13:31;102692.97;;;9.51;55.52
83027;BME280;72842;56.038;12.706;2024-03-06T08:15:57;102702.81;;;9.51;55.23
83027;BME280;72842;56.038;12.706;2024-03-06T08:18:22;102698.44;;;9.48;55.42
83027;BME280;72842;56.038;12.706;2024-03-06T08:20:48;102698.41;;;9.50;55.38
83027;BME280;72842;56.038;12.706;2024-03-06T08:23:16;102705.47;;;9.51;55.41
83027;BME280;72842;56.038;12.706;2024-03-06T08:25:41;102700.25;;;9.48;55.51
83027;BME280;72842;56.038;12.706;2024-03-06T08:28:07;102707.28;;;9.50;55.46
83027;BME280;72842;56.038;12.706;2024-03-06T08:30:32;102710.91;;;9.49;55.58
83027;BME280;72842;56.038;12.706;2024-03-06T08:32:58;102715.41;;;9.47;55.45
83027;BME280;72842;56.038;12.706;2024-03-06T08:35:24;102715.34;;;9.49;55.44
83027;BME280;72842;56.038;12.706;2024-03-06T08:37:50;102721.69;;;9.46;55.44
83027;BME280;72842;56.038;12.706;2024-03-06T08:40:17;102726.09;;;9.47;55.43
83027;BME280;72842;56.038;12.706;2024-03-06T08:42:48;102731.50;;;9.45;55.59
83027;BME280;72842;56.038;12.706;2024-03-06T08:45:14;102744.88;;;9.45;55.41
83027;BME280;72842;56.038;12.706;2024-03-06T08:47:41;102729.88;;;9.41;55.50
83027;BME280;72842;56.038;12.706;2024-03-06T08:50:07;102729.16;;;9.38;55.73
83027;BME280;72842;56.038;12.706;2024-03-06T08:52:33;102737.91;;;9.41;56.00
83027;BME280;72842;56.038;12.706;2024-03-06T08:55:02;102748.66;;;9.40;55.61
83027;BME280;72842;56.038;12.706;2024-03-06T08:57:31;102743.31;;;9.40;55.68
83027;BME280;72842;56.038;12.706;2024-03-06T08:59:58;102748.66;;;9.40;55.72
83027;BME280;72842;56.038;12.706;2024-03-06T09:02:23;102750.47;;;9.39;56.16
83027;BME280;72842;56.038;12.706;2024-03-06T09:04:49;102756.75;;;9.38;55.72
83027;BME280;72842;56.038;12.706;2024-03-06T09:07:17;102752.28;;;9.39;55.56
83027;BME280;72842;56.038;12.706;2024-03-06T09:09:42;102752.28;;;9.39;55.79
83027;BME280;72842;56.038;12.706;2024-03-06T09:12:09;102761.16;;;9.39;55.57
83027;BME280;72842;56.038;12.706;2024-03-06T09:14:40;102762.09;;;9.38;55.61
83027;BME280;72842;56.038;12.706;2024-03-06T09:17:07;102762.97;;;9.39;55.76
83027;BME280;72842;56.038;12.706;2024-03-06T09:19:36;102768.31;;;9.39;55.82
83027;BME280;72842;56.038;12.706;2024-03-06T09:22:01;102768.31;;;9.39;55.96
83027;BME280;72842;56.038;12.706;2024-03-06T09:24:28;102768.31;;;9.39;55.87
83027;BME280;72842;56.038;12.706;2024-03-06T09:26:54;102776.25;;;9.40;55.84
83027;BME280;72842;56.038;12.706;2024-03-06T09:29:19;102768.16;;;9.42;55.96
83027;BME280;72842;56.038;12.706;2024-03-06T09:31:46;102773.50;;;9.42;56.06
83027;BME280;72842;56.038;12.706;2024-03-06T09:34:13;102778.84;;;9.42;55.83
83027;BME280;72842;56.038;12.706;2024-03-06T09:36:46;102762.16;;;9.37;55.57
83027;BME280;72842;56.038;12.706;2024-03-06T09:39:12;102785.03;;;9.44;55.81
83027;BME280;72842;56.038;12.706;2024-03-06T09:41:38;102784.09;;;9.45;55.63
83027;BME280;72842;56.038;12.706;2024-03-06T09:44:06;102787.63;;;9.45;55.45
83027;BME280;72842;56.038;12.706;2024-03-06T09:46:33;102790.31;;;9.45;55.71
83027;BME280;72842;56.038;12.706;2024-03-06T09:49:00;102792.97;;;9.45;55.86
83027;BME280;72842;56.038;12.706;2024-03-06T09:51:26;102800.06;;;9.46;55.31
83027;BME280;72842;56.038;12.706;2024-03-06T09:53:53;102799.13;;;9.48;55.28
83027;BME280;72842;56.038;12.706;2024-03-06T09:56:19;102800.94;;;9.47;55.70
83027;BME280;72842;56.038;12.706;2024-03-06T09:58:48;102808.94;;;9.47;55.68
83027;BME280;72842;56.038;12.706;2024-03-06T10:01:14;102808.06;;;9.46;55.44
83027;BME280;72842;56.038;12.706;2024-03-06T10:03:40;102816.03;;;9.48;55.79
83027;BME280;72842;56.038;12.706;2024-03-06T10:06:07;102821.38;;;9.48;55.53
83027;BME280;72842;56.038;12.706;2024-03-06T10:08:33;102824.97;;;9.47;55.72
83027;BME280;72842;56.038;12.706;2024-03-06T10:10:59;102825.84;;;9.48;55.96
83027;BME280;72842;56.038;12.706;2024-03-06T10:13:25;102824.97;;;9.47;55.70
83027;BME280;72842;56.038;12.706;2024-03-06T10:16:02;102827.72;;;9.45;55.97
83027;BME280;72842;56.038;12.706;2024-03-06T10:18:29;102830.31;;;9.47;55.84
83027;BME280;72842;56.038;12.706;2024-03-06T10:20:56;102828.53;;;9.48;55.84
83027;BME280;72842;56.038;12.706;2024-03-06T10:23:21;102824.03;;;9.48;55.80
83027;BME280;72842;56.038;12.706;2024-03-06T10:25:47;102827.59;;;9.49;55.88
83027;BME280;72842;56.038;12.706;2024-03-06T10:28:21;102824.03;;;9.48;55.89
83027;BME280;72842;56.038;12.706;2024-03-06T10:30:48;102825.69;;;9.52;55.55
83027;BME280;72842;56.038;12.706;2024-03-06T10:33:14;102823.00;;;9.52;55.58
83027;BME280;72842;56.038;12.706;2024-03-06T10:35:43;102823.00;;;9.52;55.73
83027;BME280;72842;56.038;12.706;2024-03-06T10:38:10;102835.44;;;9.53;55.85
83027;BME280;72842;56.038;12.706;2024-03-06T10:40:41;102828.34;;;9.52;55.58
83027;BME280;72842;56.038;12.706;2024-03-06T10:43:08;102828.28;;;9.54;55.67
83027;BME280;72842;56.038;12.706;2024-03-06T10:45:59;102833.63;;;9.54;55.68
83027;BME280;72842;56.038;12.706;2024-03-06T10:48:28;102837.16;;;9.54;55.69
83027;BME280;72842;56.038;12.706;2024-03-06T10:50:54;102829.16;;;9.54;55.74
83027;BME280;72842;56.038;12.706;2024-03-06T10:53:22;102836.19;;;9.57;55.45
83027;BME280;72842;56.038;12.706;2024-03-06T10:55:49;102834.38;;;9.57;55.76
83027;BME280;72842;56.038;12.706;2024-03-06T10:58:15;102839.59;;;9.60;55.74
83027;BME280;72842;56.038;12.706;2024-03-06T11:00:44;102844.91;;;9.62;55.35
83027;BME280;72842;56.038;12.706;2024-03-06T11:03:15;102842.22;;;9.62;55.91
83027;BME280;72842;56.038;12.706;2024-03-06T11:05:42;102840.44;;;9.62;55.59
83027;BME280;72842;56.038;12.706;2024-03-06T11:08:13;102844.00;;;9.61;55.73
83027;BME280;72842;56.038;12.706;2024-03-06T11:10:40;102843.13;;;9.61;55.59
83027;BME280;72842;56.038;12.706;2024-03-06T11:13:22;102851.16;;;9.61;55.69
83027;BME280;72842;56.038;12.706;2024-03-06T11:15:50;102847.63;;;9.60;55.64
83027;BME280;72842;56.038;12.706;2024-03-06T11:18:45;102847.75;;;9.57;55.52
83027;BME280;72842;56.038;12.706;2024-03-06T11:26:42;102851.38;;;9.56;55.61
83027;BME280;72842;56.038;12.706;2024-03-06T11:29:08;102849.56;;;9.57;56.05
83027;BME280;72842;56.038;12.706;2024-03-06T11:31:34;102849.56;;;9.57;55.70
83027;BME280;72842;56.038;12.706;2024-03-06T11:34:03;102856.75;;;9.55;55.69
83027;BME280;72842;56.038;12.706;2024-03-06T11:36:29;102859.38;;;9.56;55.68
83027;BME280;72842;56.038;12.706;2024-03-06T11:39:00;102839.97;;;9.51;55.67
83027;BME280;72842;56.038;12.706;2024-03-06T11:41:28;102854.94;;;9.55;55.78
83027;BME280;72842;56.038;12.706;2024-03-06T11:43:55;102855.84;;;9.56;55.78
83027;BME280;72842;56.038;12.706;2024-03-06T11:46:23;102853.16;;;9.56;56.02
83027;BME280;72842;56.038;12.706;2024-03-06T11:49:23;102863.03;;;9.54;55.96
83027;BME280;72842;56.038;12.706;2024-03-06T11:51:51;102852.34;;;9.54;55.79
83027;BME280;72842;56.038;12.706;2024-03-06T11:54:17;102857.69;;;9.54;55.65
83027;BME280;72842;56.038;12.706;2024-03-06T11:56:54;102862.16;;;9.53;55.90
83027;BME280;72842;56.038;12.706;2024-03-06T11:59:24;102866.63;;;9.53;55.79
83027;BME280;72842;56.038;12.706;2024-03-06T12:01:56;102858.63;;;9.53;55.58
83027;BME280;72842;56.038;12.706;2024-03-06T12:04:22;102869.31;;;9.53;55.92
83027;BME280;72842;56.038;12.706;2024-03-06T12:06:48;102857.81;;;9.51;55.68
83027;BME280;72842;56.038;12.706;2024-03-06T12:09:14;102860.41;;;9.52;56.01
83027;BME280;72842;56.038;12.706;2024-03-06T12:11:40;102867.50;;;9.53;56.10
83027;BME280;72842;56.038;12.706;2024-03-06T12:14:13;102856.81;;;9.53;55.72
83027;BME280;72842;56.038;12.706;2024-03-06T12:16:38;102867.50;;;9.53;55.79
83027;BME280;72842;56.038;12.706;2024-03-06T12:19:04;102837.09;;;9.34;55.72
83027;BME280;72842;56.038;12.706;2024-03-06T12:21:34;102870.19;;;9.53;55.66
83027;BME280;72842;56.038;12.706;2024-03-06T12:24:04;102854.44;;;9.45;55.24
83027;BME280;72842;56.038;12.706;2024-03-06T12:26:30;102867.50;;;9.53;55.36
83027;BME280;72842;56.038;12.706;2024-03-06T12:29:09;102869.38;;;9.51;55.80
83027;BME280;72842;56.038;12.706;2024-03-06T12:31:36;102869.38;;;9.51;55.60
83027;BME280;72842;56.038;12.706;2024-03-06T12:34:03;102871.19;;;9.51;55.78
83027;BME280;72842;56.038;12.706;2024-03-06T12:36:29;102871.97;;;9.53;55.33
83027;BME280;72842;56.038;12.706;2024-03-06T12:39:02;102873.84;;;9.51;55.65
83027;BME280;72842;56.038;12.706;2024-03-06T12:41:29;102878.19;;;9.53;55.37
83027;BME280;72842;56.038;12.706;2024-03-06T12:43:55;102870.25;;;9.52;55.78
83027;BME280;72842;56.038;12.706;2024-03-06T12:46:22;102876.38;;;9.54;55.46
83027;BME280;72842;56.038;12.706;2024-03-06T12:48:48;102867.50;;;9.53;55.20
83027;BME280;72842;56.038;12.706;2024-03-06T12:51:13;102872.91;;;9.52;55.78